River Falls, Wisconsin
Current Conditions -  °F | °C
As of 6:11 AM on Friday 31 Oct 2014 (Local Time) from K21D Reporting Station
Clear Clear  
Wind Chill: -7°   Ceiling: Unl
Heat Index: -2°   Visibility: 10mi
Dew Point: -7°   Wind: 9mph
Humidity: 69%   Direction: 350°N
Pressure: 30.49"   Gusts: 16mph
Location:  44.85°N, 92.63°W
Report Text: K21D 311111Z AUTO 35008G14KT 10SM CLR M02/M07 A3049 RMK AO2
Loading
Personal Weather Stations






























Interactive Weather Map
Tropical Storm Tracking
New forecast layout! Learn more

10-Day Weather Forecast

Advertisements
Track Severe Weather on mobile